createdAt,value
2023-02-24T00:01:46.160Z,100391.66
2023-02-24T00:04:13.328Z,100393.34
2023-02-24T00:06:40.943Z,100390.53
2023-02-24T00:09:09.425Z,100389.03
2023-02-24T00:11:36.976Z,100385.41
2023-02-24T00:14:06.674Z,100393.56
2023-02-24T00:16:33.900Z,100389.13
2023-02-24T00:19:00.844Z,100402.09
2023-02-24T00:21:28.446Z,100399.28
2023-02-24T00:23:55.030Z,100406.00
2023-02-24T00:26:21.492Z,100410.16
2023-02-24T00:28:47.843Z,100412.91
2023-02-24T00:31:15.876Z,100413.56
2023-02-24T00:33:43.369Z,100414.16
2023-02-24T00:36:24.607Z,100419.78
2023-02-24T00:38:55.467Z,100415.94
2023-02-24T00:41:23.787Z,100406.34
2023-02-24T00:43:50.636Z,100412.25
2023-02-24T00:46:18.232Z,100413.06
2023-02-24T00:48:45.895Z,100407.00
2023-02-24T00:51:13.677Z,100410.50
2023-02-24T00:53:40.258Z,100413.84
2023-02-24T00:56:07.590Z,100417.53
2023-02-24T00:58:36.704Z,100407.94
2023-02-24T01:01:04.303Z,100417.19
2023-02-24T01:03:33.682Z,100405.56
2023-02-24T01:06:01.008Z,100404.25
2023-02-24T01:08:27.558Z,100401.09
2023-02-24T01:11:17.571Z,100399.00
2023-02-24T01:13:44.881Z,100396.44
2023-02-24T01:16:13.710Z,100398.38
2023-02-24T01:18:41.485Z,100404.41
2023-02-24T01:21:07.876Z,100396.63
2023-02-24T01:23:34.459Z,100398.84
2023-02-24T01:26:02.320Z,100392.44
2023-02-24T01:28:28.780Z,100387.22
2023-02-24T01:30:55.226Z,100385.25
2023-02-24T01:33:22.021Z,100373.59
2023-02-24T01:35:48.450Z,100376.00
2023-02-24T01:38:15.005Z,100369.75
2023-02-24T01:40:41.334Z,100375.69
2023-02-24T01:43:10.362Z,100364.03
2023-02-24T01:45:36.819Z,100363.53
2023-02-24T01:48:05.615Z,100362.41
2023-02-24T01:50:33.834Z,100359.38
2023-02-24T01:53:01.871Z,100358.91
2023-02-24T01:55:32.003Z,100361.00
2023-02-24T01:57:59.727Z,100350.16
2023-02-24T02:00:37.353Z,100353.34
2023-02-24T02:03:08.005Z,100353.00
2023-02-24T02:05:34.490Z,100344.06
2023-02-24T02:08:01.853Z,100343.31
2023-02-24T02:10:28.912Z,100353.19
2023-02-24T02:12:55.726Z,100347.31
2023-02-24T02:15:22.172Z,100338.00
2023-02-24T02:17:57.375Z,100344.09
2023-02-24T02:20:42.721Z,100345.66
2023-02-24T02:23:09.419Z,100341.69
2023-02-24T02:25:44.878Z,100342.03
2023-02-24T02:28:14.260Z,100334.03
2023-02-24T02:30:59.206Z,100333.88
2023-02-24T02:33:30.057Z,100332.13
2023-02-24T02:36:13.704Z,100341.22
2023-02-24T02:38:49.266Z,100332.94
2023-02-24T02:41:24.816Z,100327.16
2023-02-24T02:43:56.956Z,100333.88
2023-02-24T02:46:34.517Z,100335.13
2023-02-24T02:49:30.304Z,100330.03
2023-02-24T02:52:01.389Z,100331.63
2023-02-24T02:54:32.619Z,100321.59
2023-02-24T02:57:05.177Z,100317.75
2023-02-24T02:59:34.958Z,100319.03
2023-02-24T03:02:11.604Z,100324.50
2023-02-24T03:04:44.040Z,100327.81
2023-02-24T03:07:12.848Z,100317.47
2023-02-24T03:09:46.141Z,100312.97
2023-02-24T03:12:14.838Z,100317.44
2023-02-24T03:14:45.983Z,100315.84
2023-02-24T03:17:16.955Z,100305.97
2023-02-24T03:19:45.970Z,100293.50
2023-02-24T03:22:27.564Z,100295.59
2023-02-24T03:24:55.274Z,100288.91
2023-02-24T03:27:48.308Z,100295.59
2023-02-24T03:30:28.302Z,100290.97
2023-02-24T03:32:58.853Z,100289.38
2023-02-24T03:35:31.235Z,100282.19
2023-02-24T03:37:59.310Z,100281.56
2023-02-24T03:40:34.523Z,100281.56
2023-02-24T03:43:05.270Z,100272.16
2023-02-24T03:45:34.639Z,100266.41
2023-02-24T03:48:04.196Z,100261.78
2023-02-24T03:50:32.345Z,100255.91
2023-02-24T03:53:01.674Z,100260.81
2023-02-24T03:55:34.209Z,100263.03
2023-02-24T03:58:04.152Z,100254.28
2023-02-24T04:00:39.941Z,100261.78
2023-02-24T04:03:12.441Z,100258.09
2023-02-24T04:05:53.299Z,100253.66
2023-02-24T04:08:21.137Z,100246.81
2023-02-24T04:11:10.253Z,100247.13
2023-02-24T04:13:43.765Z,100238.97
2023-02-24T04:16:36.252Z,100237.53
2023-02-24T04:19:05.099Z,100240.09
2023-02-24T04:21:32.104Z,100236.41
2023-02-24T04:24:00.759Z,100227.66
2023-02-24T04:26:28.897Z,100221.75
2023-02-24T04:28:56.286Z,100220.00
2023-02-24T04:31:24.339Z,100218.56
2023-02-24T04:33:50.897Z,100216.97
2023-02-24T04:36:18.124Z,100207.25
2023-02-24T04:38:45.862Z,100200.25
2023-02-24T04:41:13.763Z,100198.31
2023-02-24T04:43:40.854Z,100195.31
2023-02-24T04:46:08.136Z,100195.16
2023-02-24T04:48:34.951Z,100194.34
2023-02-24T04:51:03.609Z,100190.66
2023-02-24T04:53:30.488Z,100181.25
2023-02-24T04:55:57.016Z,100184.75
2023-02-24T04:58:27.965Z,100172.81
2023-02-24T05:00:57.258Z,100169.94
2023-02-24T05:03:28.415Z,100168.84
2023-02-24T05:05:57.692Z,100170.41
2023-02-24T05:08:24.718Z,100167.41
2023-02-24T05:10:51.840Z,100160.53
2023-02-24T05:13:22.436Z,100156.06
2023-02-24T05:15:49.599Z,100157.31
2023-02-24T05:18:23.876Z,100153.31
2023-02-24T05:21:10.680Z,100146.97
2023-02-24T05:23:40.235Z,100140.28
2023-02-24T05:26:10.541Z,100142.84
2023-02-24T05:28:38.407Z,100139.47
2023-02-24T05:31:08.224Z,100136.00
2023-02-24T05:33:35.554Z,100131.19
2023-02-24T05:36:05.287Z,100132.13
2023-02-24T05:38:32.342Z,100124.19
2023-02-24T05:41:04.543Z,100112.41
2023-02-24T05:43:31.258Z,100119.38
2023-02-24T05:46:03.084Z,100122.09
2023-02-24T05:48:34.901Z,100120.50
2023-02-24T05:51:05.301Z,100117.97
2023-02-24T05:53:31.692Z,100107.28
2023-02-24T05:56:00.350Z,100093.28
2023-02-24T05:58:29.025Z,100105.06
2023-02-24T06:00:56.293Z,100092.16
2023-02-24T06:03:30.900Z,100082.72
2023-02-24T06:06:05.421Z,100079.91
2023-02-24T06:08:42.009Z,100076.50
2023-02-24T06:11:10.217Z,100068.69
2023-02-24T06:13:37.512Z,100070.59
2023-02-24T06:16:05.113Z,100064.56
2023-02-24T06:18:31.448Z,100068.81
2023-02-24T06:21:00.676Z,100059.88
2023-02-24T06:23:27.084Z,100068.78
2023-02-24T06:25:57.686Z,100059.25
2023-02-24T06:28:26.970Z,100051.63
2023-02-24T06:30:53.314Z,100045.34
2023-02-24T06:33:19.598Z,100045.34
2023-02-24T06:35:46.031Z,100043.16
2023-02-24T06:38:12.324Z,100038.22
2023-02-24T06:40:38.622Z,100034.13
2023-02-24T06:43:04.975Z,100028.69
2023-02-24T06:45:32.052Z,100021.09
2023-02-24T06:47:58.339Z,100017.41
2023-02-24T06:50:24.680Z,100023.59
2023-02-24T06:52:54.968Z,100028.78
2023-02-24T06:55:27.470Z,100027.50
2023-02-24T06:57:57.966Z,100017.44
2023-02-24T07:00:36.770Z,100011.78
2023-02-24T07:03:14.522Z,100015.22
2023-02-24T07:05:51.021Z,100018.97
2023-02-24T07:08:18.539Z,100003.97
2023-02-24T07:10:45.198Z,100000.81
2023-02-24T07:13:13.464Z,99986.38
2023-02-24T07:15:39.820Z,99997.72
2023-02-24T07:18:14.661Z,100001.94
2023-02-24T07:20:43.587Z,99984.09
2023-02-24T07:23:09.862Z,99984.22
2023-02-24T07:25:36.184Z,99980.28
2023-02-24T07:28:02.512Z,99988.69
2023-02-24T07:30:30.320Z,99973.13
2023-02-24T07:32:57.106Z,99981.78
2023-02-24T07:35:23.935Z,99971.34
2023-02-24T07:37:50.556Z,99970.50
2023-02-24T07:40:17.479Z,99970.94
2023-02-24T07:42:44.042Z,99961.22
2023-02-24T07:45:10.676Z,99949.41
2023-02-24T07:47:37.041Z,99950.16
2023-02-24T07:50:05.988Z,99951.09
2023-02-24T07:52:32.726Z,99939.53
2023-02-24T07:55:00.168Z,99947.47
2023-02-24T07:57:28.802Z,99938.16
2023-02-24T07:59:55.103Z,99936.56
2023-02-24T08:02:23.742Z,99930.78
2023-02-24T08:04:51.388Z,99934.72
2023-02-24T08:07:24.100Z,99933.69
2023-02-24T08:10:09.381Z,99923.16
2023-02-24T08:12:38.545Z,99919.34
2023-02-24T08:15:16.901Z,99921.50
2023-02-24T08:17:43.910Z,99922.00
2023-02-24T08:20:13.126Z,99911.59
2023-02-24T08:22:43.857Z,99903.44
2023-02-24T08:25:18.059Z,99905.34
2023-02-24T08:27:46.940Z,99890.06
2023-02-24T08:30:23.349Z,99894.50
2023-02-24T08:32:56.827Z,99879.81
2023-02-24T08:35:25.780Z,99891.59
2023-02-24T08:37:53.334Z,99885.16
2023-02-24T08:40:33.468Z,99873.97
2023-02-24T08:43:17.674Z,99872.59
2023-02-24T08:45:45.267Z,99870.22
2023-02-24T08:48:33.093Z,99859.69
2023-02-24T08:51:01.624Z,99864.00
2023-02-24T08:53:33.882Z,99866.97
2023-02-24T08:56:09.347Z,99856.09
2023-02-24T08:58:40.836Z,99846.97
2023-02-24T09:01:18.358Z,99848.19
2023-02-24T09:03:48.977Z,99850.38
2023-02-24T09:06:25.346Z,99846.53
2023-02-24T09:09:13.256Z,99838.06
2023-02-24T09:11:43.961Z,99834.47
2023-02-24T09:14:26.113Z,99834.00
2023-02-24T09:17:11.777Z,99824.66
2023-02-24T09:19:52.196Z,99825.28
2023-02-24T09:22:26.005Z,99819.44
2023-02-24T09:25:12.293Z,99817.94
2023-02-24T09:27:42.256Z,99804.03
2023-02-24T09:30:31.641Z,99799.03
2023-02-24T09:33:01.438Z,99804.44
2023-02-24T09:35:31.053Z,99792.63
2023-02-24T09:38:00.330Z,99783.88
2023-02-24T09:40:48.849Z,99784.50
2023-02-24T09:43:28.057Z,99776.59
2023-02-24T09:45:58.388Z,99769.97
2023-02-24T09:48:30.266Z,99772.00
2023-02-24T09:51:05.629Z,99767.78
2023-02-24T09:53:41.352Z,99759.03
2023-02-24T09:56:26.826Z,99754.91
2023-02-24T09:59:10.393Z,99760.97
2023-02-24T10:01:55.595Z,99759.03
2023-02-24T10:04:37.651Z,99740.53
2023-02-24T10:07:38.419Z,99752.00
2023-02-24T10:10:20.480Z,99741.66
2023-02-24T10:12:52.531Z,99740.44
2023-02-24T10:15:21.049Z,99732.09
2023-02-24T10:17:52.155Z,99733.97
2023-02-24T10:20:51.012Z,99722.69
2023-02-24T10:23:17.324Z,99721.00
2023-02-24T10:25:53.715Z,99722.16
2023-02-24T10:28:35.709Z,99719.00
2023-02-24T10:31:10.299Z,99706.16
2023-02-24T10:33:39.329Z,99714.94
2023-02-24T10:36:09.039Z,99703.50
2023-02-24T10:38:36.335Z,99699.75
2023-02-24T10:41:06.115Z,99692.16
2023-02-24T10:43:42.751Z,99673.72
2023-02-24T10:46:22.145Z,99675.47
2023-02-24T10:49:00.357Z,99668.53
2023-02-24T10:51:38.287Z,99672.03
2023-02-24T10:54:22.295Z,99657.00
2023-02-24T10:57:00.525Z,99654.66
2023-02-24T10:59:48.357Z,99638.69
2023-02-24T11:02:32.885Z,99634.94
2023-02-24T11:05:16.861Z,99624.88
2023-02-24T11:07:53.817Z,99626.84
2023-02-24T11:10:32.592Z,99612.97
2023-02-24T11:13:19.027Z,99605.72
2023-02-24T11:16:06.932Z,99603.63
2023-02-24T11:18:33.814Z,99605.38
2023-02-24T11:21:00.101Z,99585.34
2023-02-24T11:23:29.080Z,99584.84
2023-02-24T11:26:01.102Z,99574.03
2023-02-24T11:28:43.394Z,99567.09
2023-02-24T11:31:09.756Z,99559.16
2023-02-24T11:33:42.468Z,99552.72
2023-02-24T11:36:15.790Z,99533.88
2023-02-24T11:38:45.773Z,99531.97
2023-02-24T11:41:18.922Z,99531.13
2023-02-24T11:43:49.784Z,99527.63
2023-02-24T11:46:20.643Z,99511.06
2023-02-24T11:48:51.774Z,99504.66
2023-02-24T11:51:20.273Z,99491.31
2023-02-24T11:54:04.107Z,99486.63
2023-02-24T11:56:33.740Z,99489.25
2023-02-24T11:59:11.088Z,99472.34
2023-02-24T12:01:48.595Z,99455.97
2023-02-24T12:04:24.870Z,99463.16
2023-02-24T12:07:09.687Z,99449.34
2023-02-24T12:09:53.744Z,99457.97
2023-02-24T12:12:21.337Z,99455.25
2023-02-24T12:14:51.822Z,99444.00
2023-02-24T12:17:23.902Z,99444.47
2023-02-24T12:19:51.630Z,99443.34
2023-02-24T12:22:17.969Z,99432.47
2023-02-24T12:24:47.592Z,99424.75
2023-02-24T12:27:13.857Z,99425.97
2023-02-24T12:29:42.392Z,99418.00
2023-02-24T12:32:21.566Z,99419.50
2023-02-24T12:34:48.807Z,99407.56
2023-02-24T12:37:34.683Z,99418.56
2023-02-24T12:40:00.989Z,99408.84
2023-02-24T12:42:45.640Z,99393.31
2023-02-24T12:45:14.986Z,99407.72
2023-02-24T12:48:00.141Z,99392.44
2023-02-24T12:50:35.133Z,99397.59
2023-02-24T12:53:07.549Z,99388.53
2023-02-24T12:55:52.238Z,99381.53
2023-02-24T12:58:18.548Z,99373.25
2023-02-24T13:00:44.882Z,99368.75
2023-02-24T13:03:29.724Z,99367.41
2023-02-24T13:06:06.072Z,99369.09
2023-02-24T13:08:51.620Z,99358.34
2023-02-24T13:11:21.081Z,99350.94
2023-02-24T13:13:56.359Z,99350.50
2023-02-24T13:16:33.805Z,99353.38
2023-02-24T13:19:19.145Z,99351.84
2023-02-24T13:22:03.743Z,99347.16
2023-02-24T13:24:30.164Z,99340.22
2023-02-24T13:27:20.969Z,99326.28
2023-02-24T13:29:51.678Z,99317.63
2023-02-24T13:32:33.357Z,99313.28
2023-02-24T13:35:01.765Z,99312.66
2023-02-24T13:37:29.064Z,99310.94
2023-02-24T13:39:55.597Z,99312.28
2023-02-24T13:42:25.025Z,99313.78
2023-02-24T13:44:54.412Z,99299.56
2023-02-24T13:47:30.142Z,99295.94
2023-02-24T13:50:13.149Z,99288.59
2023-02-24T13:52:45.859Z,99276.19
2023-02-24T13:55:30.991Z,99275.22
2023-02-24T13:57:57.301Z,99266.38
2023-02-24T14:00:28.532Z,99271.72
2023-02-24T14:02:55.344Z,99258.97
2023-02-24T14:05:21.655Z,99262.09
2023-02-24T14:07:50.151Z,99262.88
2023-02-24T14:10:21.298Z,99258.06
2023-02-24T14:12:48.304Z,99262.91
2023-02-24T14:15:23.191Z,99258.16
2023-02-24T14:17:56.982Z,99249.25
2023-02-24T14:20:24.516Z,99251.94
2023-02-24T14:22:55.113Z,99249.47
2023-02-24T14:25:26.227Z,99249.81
2023-02-24T14:27:53.592Z,99247.88
2023-02-24T14:30:22.814Z,99249.94
2023-02-24T14:32:49.391Z,99250.03
2023-02-24T14:35:31.307Z,99237.94
2023-02-24T14:37:57.668Z,99237.19
2023-02-24T14:40:25.530Z,99236.97
2023-02-24T14:42:54.439Z,99231.06
2023-02-24T14:45:23.123Z,99234.44
2023-02-24T14:47:49.462Z,99218.03
2023-02-24T14:50:17.603Z,99217.91
2023-02-24T14:52:51.079Z,99219.44
2023-02-24T14:55:20.141Z,99197.34
2023-02-24T14:57:56.396Z,99197.09
2023-02-24T15:00:45.713Z,99195.69
2023-02-24T15:03:22.402Z,99183.50
2023-02-24T15:05:51.120Z,99185.53
2023-02-24T15:08:23.368Z,99179.69
2023-02-24T15:10:49.807Z,99171.47
2023-02-24T15:13:27.674Z,99177.91
2023-02-24T15:15:54.082Z,99168.88
2023-02-24T15:18:28.319Z,99162.59
2023-02-24T15:21:01.959Z,99156.13
2023-02-24T15:23:32.692Z,99151.69
2023-02-24T15:25:59.074Z,99152.84
2023-02-24T15:28:27.282Z,99145.81
2023-02-24T15:30:59.028Z,99145.19
2023-02-24T15:33:29.171Z,99142.06
2023-02-24T15:35:57.459Z,99131.88
2023-02-24T15:38:24.987Z,99124.16
2023-02-24T15:40:52.959Z,99125.50
2023-02-24T15:43:32.052Z,99124.31
2023-02-24T15:45:58.450Z,99122.22
2023-02-24T15:48:31.263Z,99118.69
2023-02-24T15:51:01.608Z,99112.72
2023-02-24T15:53:27.940Z,99105.59
2023-02-24T15:55:54.314Z,99105.72
2023-02-24T15:58:22.132Z,99094.75
2023-02-24T16:00:52.604Z,99086.97
2023-02-24T16:03:19.007Z,99094.06
2023-02-24T16:05:45.443Z,99093.09
2023-02-24T16:08:13.585Z,99086.38
2023-02-24T16:10:40.057Z,99086.78
2023-02-24T16:13:06.407Z,99086.22
2023-02-24T16:15:35.407Z,99085.06
2023-02-24T16:18:02.665Z,99084.91
2023-02-24T16:20:35.613Z,99079.66
2023-02-24T16:23:03.259Z,99078.06
2023-02-24T16:25:33.221Z,99080.72
2023-02-24T16:27:59.560Z,99071.06
2023-02-24T16:30:29.512Z,99077.25
2023-02-24T16:32:56.654Z,99069.53
2023-02-24T16:35:23.456Z,99072.06
2023-02-24T16:37:49.791Z,99066.59
2023-02-24T16:40:20.036Z,99066.41
2023-02-24T16:42:47.292Z,99064.75
2023-02-24T16:45:13.615Z,99066.59
2023-02-24T16:47:40.567Z,99062.28
2023-02-24T16:50:07.066Z,99062.59
2023-02-24T16:52:33.370Z,99053.41
2023-02-24T16:55:01.934Z,99050.19
2023-02-24T16:57:28.510Z,99049.47
2023-02-24T16:59:54.910Z,99039.63
2023-02-24T17:02:25.862Z,99043.41
2023-02-24T17:04:52.620Z,99043.56
2023-02-24T17:07:20.902Z,99043.53
2023-02-24T17:09:47.222Z,99034.03
2023-02-24T17:12:15.214Z,99032.56
2023-02-24T17:14:41.715Z,99020.44
2023-02-24T17:17:08.180Z,99020.84
2023-02-24T17:19:34.565Z,99023.63
2023-02-24T17:22:00.874Z,99012.13
2023-02-24T17:24:28.417Z,99011.19
2023-02-24T17:26:58.662Z,99007.84
2023-02-24T17:29:25.349Z,99003.28
2023-02-24T17:31:51.895Z,99003.19
2023-02-24T17:34:18.796Z,99012.00
2023-02-24T17:36:45.106Z,99009.66
2023-02-24T17:39:11.425Z,99003.84
2023-02-24T17:41:37.782Z,98998.56
2023-02-24T17:44:04.167Z,99006.28
2023-02-24T17:46:30.533Z,98998.78
2023-02-24T17:48:57.272Z,99002.53
2023-02-24T17:51:23.643Z,98988.44
2023-02-24T17:53:49.996Z,98992.69
2023-02-24T17:56:16.446Z,98989.78
2023-02-24T17:58:42.772Z,98983.28
2023-02-24T18:01:09.212Z,98984.09
2023-02-24T18:03:36.156Z,98972.97
2023-02-24T18:06:07.466Z,98975.78
2023-02-24T18:08:34.907Z,98966.22
2023-02-24T18:11:01.832Z,98971.69
2023-02-24T18:13:28.665Z,98961.69
2023-02-24T18:15:55.145Z,98949.66
2023-02-24T18:18:21.628Z,98943.44
2023-02-24T18:20:47.975Z,98937.06
2023-02-24T18:23:14.901Z,98940.31
2023-02-24T18:25:41.229Z,98930.06
2023-02-24T18:28:07.618Z,98930.78
2023-02-24T18:30:34.076Z,98927.78
2023-02-24T18:33:00.774Z,98933.16
2023-02-24T18:35:29.149Z,98930.69
2023-02-24T18:37:58.556Z,98920.03
2023-02-24T18:40:28.530Z,98930.34
2023-02-24T18:42:55.017Z,98927.09
2023-02-24T18:45:22.593Z,98913.91
2023-02-24T18:47:50.536Z,98910.84
2023-02-24T18:50:17.307Z,98900.25
2023-02-24T18:52:43.700Z,98902.13
2023-02-24T18:55:10.233Z,98893.91
2023-02-24T18:57:37.140Z,98894.19
2023-02-24T19:00:06.957Z,98881.41
2023-02-24T19:02:33.366Z,98884.19
2023-02-24T19:04:59.712Z,98879.72
2023-02-24T19:07:26.226Z,98884.44
2023-02-24T19:09:52.630Z,98876.50
2023-02-24T19:12:20.376Z,98871.00
2023-02-24T19:14:50.429Z,98868.22
2023-02-24T19:17:16.825Z,98862.25
2023-02-24T19:19:43.461Z,98861.06
2023-02-24T19:22:09.770Z,98853.53
2023-02-24T19:24:36.118Z,98847.13
2023-02-24T19:27:02.421Z,98846.50
2023-02-24T19:29:28.852Z,98842.50
2023-02-24T19:32:00.708Z,98839.41
2023-02-24T19:34:27.126Z,98834.13
2023-02-24T19:36:53.504Z,98838.84
2023-02-24T19:39:19.923Z,98829.63
2023-02-24T19:41:49.209Z,98831.53
2023-02-24T19:44:15.906Z,98826.56
2023-02-24T19:46:43.007Z,98818.41
2023-02-24T19:49:09.419Z,98815.50
2023-02-24T19:51:35.828Z,98810.44
2023-02-24T19:54:08.752Z,98813.91
2023-02-24T19:56:35.932Z,98808.88
2023-02-24T19:59:03.052Z,98814.00
2023-02-24T20:01:30.104Z,98807.25
2023-02-24T20:04:01.300Z,98804.53
2023-02-24T20:06:31.341Z,98811.59
2023-02-24T20:08:58.156Z,98805.06
2023-02-24T20:11:24.551Z,98808.25
2023-02-24T20:13:51.575Z,98798.91
2023-02-24T20:16:19.123Z,98803.81
2023-02-24T20:18:45.570Z,98807.16
2023-02-24T20:21:12.598Z,98789.16
2023-02-24T20:23:40.199Z,98801.91
2023-02-24T20:26:07.050Z,98800.19
2023-02-24T20:28:33.541Z,98799.75
2023-02-24T20:31:05.206Z,98796.53
2023-02-24T20:33:31.666Z,98795.50
2023-02-24T20:35:58.015Z,98798.47
2023-02-24T20:38:24.428Z,98792.41
2023-02-24T20:40:59.362Z,98792.63
2023-02-24T20:43:26.958Z,98798.38
2023-02-24T20:45:53.279Z,98784.19
2023-02-24T20:48:19.929Z,98787.69
2023-02-24T20:50:46.341Z,98787.69
2023-02-24T20:53:12.653Z,98787.47
2023-02-24T20:55:38.963Z,98773.63
2023-02-24T20:58:05.332Z,98772.34
2023-02-24T21:00:34.095Z,98770.00
2023-02-24T21:03:00.976Z,98776.34
2023-02-24T21:05:27.605Z,98777.34
2023-02-24T21:07:54.237Z,98784.19
2023-02-24T21:10:25.767Z,98768.44
2023-02-24T21:12:52.695Z,98768.38
2023-02-24T21:15:19.626Z,98769.84
2023-02-24T21:17:46.107Z,98768.22
2023-02-24T21:20:13.252Z,98765.69
2023-02-24T21:22:40.409Z,98768.66
2023-02-24T21:25:07.324Z,98757.38
2023-02-24T21:27:34.106Z,98753.66
2023-02-24T21:30:00.462Z,98755.94
2023-02-24T21:32:26.872Z,98747.69
2023-02-24T21:34:53.211Z,98752.22
2023-02-24T21:37:19.530Z,98747.53
2023-02-24T21:39:45.857Z,98740.09
2023-02-24T21:42:12.230Z,98741.03
2023-02-24T21:44:44.147Z,98738.31
2023-02-24T21:47:10.917Z,98736.25
2023-02-24T21:49:37.305Z,98728.84
2023-02-24T21:52:05.432Z,98734.13
2023-02-24T21:54:32.196Z,98737.97
2023-02-24T21:56:58.596Z,98733.06
2023-02-24T21:59:24.929Z,98726.47
2023-02-24T22:01:51.388Z,98726.28
2023-02-24T22:04:19.121Z,98732.13
2023-02-24T22:06:45.733Z,98721.69
2023-02-24T22:09:15.035Z,98724.13
2023-02-24T22:11:41.664Z,98719.28
2023-02-24T22:14:09.151Z,98725.06
2023-02-24T22:16:35.583Z,98720.63
2023-02-24T22:19:02.072Z,98720.13
2023-02-24T22:21:29.179Z,98722.41
2023-02-24T22:24:00.275Z,98723.75
2023-02-24T22:26:27.443Z,98719.69
2023-02-24T22:28:54.811Z,98719.56
2023-02-24T22:31:22.581Z,98724.94
2023-02-24T22:33:49.416Z,98720.03
2023-02-24T22:36:16.985Z,98720.53
2023-02-24T22:38:43.724Z,98742.16
2023-02-24T22:41:21.007Z,98757.00
2023-02-24T22:43:47.543Z,98767.38
2023-02-24T22:46:15.396Z,98760.72
2023-02-24T22:48:42.091Z,98752.94
2023-02-24T22:51:09.677Z,98748.97
2023-02-24T22:53:37.648Z,98749.22
2023-02-24T22:56:04.268Z,98751.09
2023-02-24T22:58:30.637Z,98754.00
2023-02-24T23:00:58.360Z,98750.06
2023-02-24T23:03:26.962Z,98755.66
2023-02-24T23:06:04.634Z,98763.50
2023-02-24T23:08:32.012Z,98759.72
2023-02-24T23:11:05.776Z,98766.41
2023-02-24T23:13:35.150Z,98763.63
2023-02-24T23:16:03.358Z,98749.31
2023-02-24T23:18:30.596Z,98757.34
2023-02-24T23:20:59.457Z,98770.75
2023-02-24T23:23:27.046Z,98767.78
2023-02-24T23:25:53.874Z,98770.28
2023-02-24T23:28:20.203Z,98761.50
2023-02-24T23:30:46.642Z,98760.03
2023-02-24T23:33:13.336Z,98768.38
2023-02-24T23:35:40.654Z,98757.56
2023-02-24T23:38:07.543Z,98759.13
2023-02-24T23:40:48.053Z,98760.47
2023-02-24T23:43:15.724Z,98757.75
2023-02-24T23:45:42.775Z,98750.00
2023-02-24T23:48:10.321Z,98739.44
2023-02-24T23:50:37.644Z,98752.63
2023-02-24T23:53:04.516Z,98754.44
2023-02-24T23:55:33.973Z,98751.75
2023-02-24T23:58:00.653Z,98750.63
